sensor_id;sensor_type;location;lat;lon;timestamp;temperature;humidity
28837;DHT22;50669;50.982;11.022;2023-06-22T00:00:08;24.20;92.90
28837;DHT22;50669;50.982;11.022;2023-06-22T00:02:37;24.00;93.20
28837;DHT22;50669;50.982;11.022;2023-06-22T00:05:03;23.80;93.50
28837;DHT22;50669;50.982;11.022;2023-06-22T00:07:28;23.70;93.70
28837;DHT22;50669;50.982;11.022;2023-06-22T00:09:56;23.60;94.00
28837;DHT22;50669;50.982;11.022;2023-06-22T00:12:22;23.60;94.00
28837;DHT22;50669;50.982;11.022;2023-06-22T00:14:48;23.60;93.90
28837;DHT22;50669;50.982;11.022;2023-06-22T00:17:13;23.70;93.90
28837;DHT22;50669;50.982;11.022;2023-06-22T00:19:39;23.80;93.80
28837;DHT22;50669;50.982;11.022;2023-06-22T00:22:05;23.80;93.80
28837;DHT22;50669;50.982;11.022;2023-06-22T00:24:31;23.90;93.60
28837;DHT22;50669;50.982;11.022;2023-06-22T00:26:57;23.90;93.60
28837;DHT22;50669;50.982;11.022;2023-06-22T00:29:25;23.90;93.50
28837;DHT22;50669;50.982;11.022;2023-06-22T00:31:53;23.90;93.80
28837;DHT22;50669;50.982;11.022;2023-06-22T00:34:20;23.90;93.80
28837;DHT22;50669;50.982;11.022;2023-06-22T00:36:46;23.90;93.90
28837;DHT22;50669;50.982;11.022;2023-06-22T00:39:14;23.80;94.00
28837;DHT22;50669;50.982;11.022;2023-06-22T00:41:40;23.80;94.10
28837;DHT22;50669;50.982;11.022;2023-06-22T00:44:05;23.80;94.10
28837;DHT22;50669;50.982;11.022;2023-06-22T00:46:34;23.80;94.10
28837;DHT22;50669;50.982;11.022;2023-06-22T00:48:59;23.80;94.10
28837;DHT22;50669;50.982;11.022;2023-06-22T00:51:25;23.80;94.10
28837;DHT22;50669;50.982;11.022;2023-06-22T00:53:54;23.80;94.10
28837;DHT22;50669;50.982;11.022;2023-06-22T00:56:24;23.70;94.20
28837;DHT22;50669;50.982;11.022;2023-06-22T00:58:55;23.60;94.40
28837;DHT22;50669;50.982;11.022;2023-06-22T01:01:22;23.60;94.60
28837;DHT22;50669;50.982;11.022;2023-06-22T01:03:48;23.60;94.50
28837;DHT22;50669;50.982;11.022;2023-06-22T01:06:22;23.60;94.50
28837;DHT22;50669;50.982;11.022;2023-06-22T01:09:02;23.50;94.60
28837;DHT22;50669;50.982;11.022;2023-06-22T01:11:54;23.50;94.70
28837;DHT22;50669;50.982;11.022;2023-06-22T01:14:27;23.40;94.60
28837;DHT22;50669;50.982;11.022;2023-06-22T01:16:57;23.30;94.80
28837;DHT22;50669;50.982;11.022;2023-06-22T01:19:39;23.20;95.20
28837;DHT22;50669;50.982;11.022;2023-06-22T01:22:17;23.20;95.30
28837;DHT22;50669;50.982;11.022;2023-06-22T01:24:57;23.20;95.30
28837;DHT22;50669;50.982;11.022;2023-06-22T01:29:58;23.10;95.50
28837;DHT22;50669;50.982;11.022;2023-06-22T01:32:31;23.10;95.70
28837;DHT22;50669;50.982;11.022;2023-06-22T01:35:03;23.10;95.90
28837;DHT22;50669;50.982;11.022;2023-06-22T01:37:34;23.10;95.50
28837;DHT22;50669;50.982;11.022;2023-06-22T01:40:02;23.10;95.50
28837;DHT22;50669;50.982;11.022;2023-06-22T01:42:30;23.20;95.50
28837;DHT22;50669;50.982;11.022;2023-06-22T01:44:57;23.20;95.50
28837;DHT22;50669;50.982;11.022;2023-06-22T01:47:26;23.20;95.40
28837;DHT22;50669;50.982;11.022;2023-06-22T01:49:53;23.30;95.40
28837;DHT22;50669;50.982;11.022;2023-06-22T01:52:23;23.30;95.30
28837;DHT22;50669;50.982;11.022;2023-06-22T01:54:48;23.30;95.30
28837;DHT22;50669;50.982;11.022;2023-06-22T01:57:14;23.40;95.40
28837;DHT22;50669;50.982;11.022;2023-06-22T02:02:39;23.30;95.30
28837;DHT22;50669;50.982;11.022;2023-06-22T02:05:09;23.30;95.30
28837;DHT22;50669;50.982;11.022;2023-06-22T02:07:48;23.30;95.30
28837;DHT22;50669;50.982;11.022;2023-06-22T02:10:16;23.40;95.30
28837;DHT22;50669;50.982;11.022;2023-06-22T02:12:47;23.40;95.20
28837;DHT22;50669;50.982;11.022;2023-06-22T02:15:16;23.40;95.10
28837;DHT22;50669;50.982;11.022;2023-06-22T02:17:42;23.30;95.30
28837;DHT22;50669;50.982;11.022;2023-06-22T02:20:14;23.20;95.50
28837;DHT22;50669;50.982;11.022;2023-06-22T02:22:40;23.20;95.50
28837;DHT22;50669;50.982;11.022;2023-06-22T02:25:08;23.20;95.50
28837;DHT22;50669;50.982;11.022;2023-06-22T02:27:34;23.20;95.50
28837;DHT22;50669;50.982;11.022;2023-06-22T02:30:00;23.10;95.60
28837;DHT22;50669;50.982;11.022;2023-06-22T02:32:26;23.10;95.60
28837;DHT22;50669;50.982;11.022;2023-06-22T02:34:53;23.00;95.80
28837;DHT22;50669;50.982;11.022;2023-06-22T02:37:18;23.10;95.90
28837;DHT22;50669;50.982;11.022;2023-06-22T02:39:46;23.10;95.80
28837;DHT22;50669;50.982;11.022;2023-06-22T02:42:12;23.00;95.80
28837;DHT22;50669;50.982;11.022;2023-06-22T02:44:37;23.00;95.90
28837;DHT22;50669;50.982;11.022;2023-06-22T02:47:03;23.00;95.80
28837;DHT22;50669;50.982;11.022;2023-06-22T02:49:30;23.00;95.90
28837;DHT22;50669;50.982;11.022;2023-06-22T02:51:55;23.10;95.70
28837;DHT22;50669;50.982;11.022;2023-06-22T02:54:23;23.20;95.70
28837;DHT22;50669;50.982;11.022;2023-06-22T02:56:51;23.20;95.60
28837;DHT22;50669;50.982;11.022;2023-06-22T02:59:19;23.30;95.50
28837;DHT22;50669;50.982;11.022;2023-06-22T03:01:51;23.10;95.70
28837;DHT22;50669;50.982;11.022;2023-06-22T03:04:20;23.10;95.90
28837;DHT22;50669;50.982;11.022;2023-06-22T03:06:45;22.90;96.20
28837;DHT22;50669;50.982;11.022;2023-06-22T03:09:18;22.90;96.10
28837;DHT22;50669;50.982;11.022;2023-06-22T03:11:44;23.00;96.10
28837;DHT22;50669;50.982;11.022;2023-06-22T03:14:09;23.00;96.10
28837;DHT22;50669;50.982;11.022;2023-06-22T03:16:35;23.10;96.10
28837;DHT22;50669;50.982;11.022;2023-06-22T03:19:03;23.20;96.00
28837;DHT22;50669;50.982;11.022;2023-06-22T03:21:33;23.30;95.80
28837;DHT22;50669;50.982;11.022;2023-06-22T03:23:58;23.40;95.40
28837;DHT22;50669;50.982;11.022;2023-06-22T03:26:29;23.70;95.20
28837;DHT22;50669;50.982;11.022;2023-06-22T03:28:57;23.90;94.70
28837;DHT22;50669;50.982;11.022;2023-06-22T03:31:23;23.90;94.30
28837;DHT22;50669;50.982;11.022;2023-06-22T03:33:49;23.80;94.20
28837;DHT22;50669;50.982;11.022;2023-06-22T03:36:18;23.70;94.50
28837;DHT22;50669;50.982;11.022;2023-06-22T03:38:45;23.70;94.50
28837;DHT22;50669;50.982;11.022;2023-06-22T03:41:13;23.70;94.60
28837;DHT22;50669;50.982;11.022;2023-06-22T03:43:39;23.60;94.60
28837;DHT22;50669;50.982;11.022;2023-06-22T03:46:05;23.50;94.70
28837;DHT22;50669;50.982;11.022;2023-06-22T03:48:31;23.50;94.80
28837;DHT22;50669;50.982;11.022;2023-06-22T03:50:59;23.50;94.80
28837;DHT22;50669;50.982;11.022;2023-06-22T03:53:27;23.50;94.80
28837;DHT22;50669;50.982;11.022;2023-06-22T03:55:53;23.40;94.80
28837;DHT22;50669;50.982;11.022;2023-06-22T03:58:21;23.40;94.90
28837;DHT22;50669;50.982;11.022;2023-06-22T04:00:51;23.40;94.80
28837;DHT22;50669;50.982;11.022;2023-06-22T04:03:20;23.40;95.00
28837;DHT22;50669;50.982;11.022;2023-06-22T04:05:46;23.30;95.00
28837;DHT22;50669;50.982;11.022;2023-06-22T04:08:12;23.30;95.10
28837;DHT22;50669;50.982;11.022;2023-06-22T04:10:38;23.20;95.40
28837;DHT22;50669;50.982;11.022;2023-06-22T04:13:06;23.10;95.50
28837;DHT22;50669;50.982;11.022;2023-06-22T04:15:34;23.10;95.60
28837;DHT22;50669;50.982;11.022;2023-06-22T04:18:02;23.10;95.70
28837;DHT22;50669;50.982;11.022;2023-06-22T04:20:28;22.90;96.30
28837;DHT22;50669;50.982;11.022;2023-06-22T04:22:54;22.90;96.40
28837;DHT22;50669;50.982;11.022;2023-06-22T04:25:20;23.00;96.50
28837;DHT22;50669;50.982;11.022;2023-06-22T04:27:48;23.00;96.40
28837;DHT22;50669;50.982;11.022;2023-06-22T04:30:14;23.10;96.30
28837;DHT22;50669;50.982;11.022;2023-06-22T04:32:42;23.10;96.40
28837;DHT22;50669;50.982;11.022;2023-06-22T04:35:08;23.10;96.20
28837;DHT22;50669;50.982;11.022;2023-06-22T04:37:38;23.20;96.20
28837;DHT22;50669;50.982;11.022;2023-06-22T04:40:07;23.20;96.10
28837;DHT22;50669;50.982;11.022;2023-06-22T04:42:34;23.30;96.10
28837;DHT22;50669;50.982;11.022;2023-06-22T04:45:03;23.30;96.10
28837;DHT22;50669;50.982;11.022;2023-06-22T04:47:30;23.40;96.10
28837;DHT22;50669;50.982;11.022;2023-06-22T04:49:58;23.40;96.10
28837;DHT22;50669;50.982;11.022;2023-06-22T04:52:26;23.40;96.00
28837;DHT22;50669;50.982;11.022;2023-06-22T04:54:54;23.30;96.50
28837;DHT22;50669;50.982;11.022;2023-06-22T04:57:23;23.30;96.20
28837;DHT22;50669;50.982;11.022;2023-06-22T04:59:58;23.40;96.10
28837;DHT22;50669;50.982;11.022;2023-06-22T05:02:37;23.40;96.10
28837;DHT22;50669;50.982;11.022;2023-06-22T05:05:03;23.50;96.00
28837;DHT22;50669;50.982;11.022;2023-06-22T05:07:33;23.50;96.00
28837;DHT22;50669;50.982;11.022;2023-06-22T05:09:59;23.40;96.00
28837;DHT22;50669;50.982;11.022;2023-06-22T05:12:25;23.30;96.10
28837;DHT22;50669;50.982;11.022;2023-06-22T05:14:52;23.20;96.50
28837;DHT22;50669;50.982;11.022;2023-06-22T05:17:18;23.30;96.50
28837;DHT22;50669;50.982;11.022;2023-06-22T05:19:46;23.50;96.30
28837;DHT22;50669;50.982;11.022;2023-06-22T05:22:15;23.70;96.10
28837;DHT22;50669;50.982;11.022;2023-06-22T05:24:41;23.80;95.90
28837;DHT22;50669;50.982;11.022;2023-06-22T05:27:09;23.90;95.80
28837;DHT22;50669;50.982;11.022;2023-06-22T05:29:37;24.00;95.50
28837;DHT22;50669;50.982;11.022;2023-06-22T05:32:06;24.10;95.40
28837;DHT22;50669;50.982;11.022;2023-06-22T05:34:32;24.20;95.30
28837;DHT22;50669;50.982;11.022;2023-06-22T05:36:58;24.20;95.70
28837;DHT22;50669;50.982;11.022;2023-06-22T05:39:26;24.20;95.50
28837;DHT22;50669;50.982;11.022;2023-06-22T05:41:52;24.20;95.40
28837;DHT22;50669;50.982;11.022;2023-06-22T05:44:20;24.30;95.30
28837;DHT22;50669;50.982;11.022;2023-06-22T05:46:48;24.30;95.30
28837;DHT22;50669;50.982;11.022;2023-06-22T05:49:15;24.40;95.30
28837;DHT22;50669;50.982;11.022;2023-06-22T05:51:42;24.50;95.00
28837;DHT22;50669;50.982;11.022;2023-06-22T05:54:10;24.60;94.70
28837;DHT22;50669;50.982;11.022;2023-06-22T05:56:35;24.70;94.50
28837;DHT22;50669;50.982;11.022;2023-06-22T05:59:01;24.90;94.30
28837;DHT22;50669;50.982;11.022;2023-06-22T06:01:27;24.90;94.10
28837;DHT22;50669;50.982;11.022;2023-06-22T06:03:52;25.00;93.90
28837;DHT22;50669;50.982;11.022;2023-06-22T06:06:18;25.10;93.80
28837;DHT22;50669;50.982;11.022;2023-06-22T06:08:47;25.20;93.70
28837;DHT22;50669;50.982;11.022;2023-06-22T06:11:13;25.20;93.50
28837;DHT22;50669;50.982;11.022;2023-06-22T06:13:43;25.30;93.40
28837;DHT22;50669;50.982;11.022;2023-06-22T06:16:09;25.40;93.40
28837;DHT22;50669;50.982;11.022;2023-06-22T06:18:34;25.40;93.20
28837;DHT22;50669;50.982;11.022;2023-06-22T06:21:06;25.40;93.50
28837;DHT22;50669;50.982;11.022;2023-06-22T06:23:31;25.50;93.00
28837;DHT22;50669;50.982;11.022;2023-06-22T06:25:59;25.50;93.00
28837;DHT22;50669;50.982;11.022;2023-06-22T06:28:25;25.50;92.90
28837;DHT22;50669;50.982;11.022;2023-06-22T06:30:55;25.60;92.80
28837;DHT22;50669;50.982;11.022;2023-06-22T06:33:21;25.60;92.80
28837;DHT22;50669;50.982;11.022;2023-06-22T06:35:49;25.60;92.70
28837;DHT22;50669;50.982;11.022;2023-06-22T06:38:17;25.70;92.60
28837;DHT22;50669;50.982;11.022;2023-06-22T06:40:43;25.70;92.60
28837;DHT22;50669;50.982;11.022;2023-06-22T06:43:12;25.70;92.50
28837;DHT22;50669;50.982;11.022;2023-06-22T06:45:37;25.70;92.50
28837;DHT22;50669;50.982;11.022;2023-06-22T06:48:03;25.70;92.40
28837;DHT22;50669;50.982;11.022;2023-06-22T06:50:29;25.80;92.40
28837;DHT22;50669;50.982;11.022;2023-06-22T06:52:54;25.80;92.30
28837;DHT22;50669;50.982;11.022;2023-06-22T06:55:24;25.80;92.30
28837;DHT22;50669;50.982;11.022;2023-06-22T06:57:53;25.80;92.20
28837;DHT22;50669;50.982;11.022;2023-06-22T07:00:19;25.90;92.20
28837;DHT22;50669;50.982;11.022;2023-06-22T07:02:47;25.80;92.10
28837;DHT22;50669;50.982;11.022;2023-06-22T07:05:15;25.90;92.10
28837;DHT22;50669;50.982;11.022;2023-06-22T07:07:40;25.90;92.00
28837;DHT22;50669;50.982;11.022;2023-06-22T07:10:10;25.90;92.00
28837;DHT22;50669;50.982;11.022;2023-06-22T07:12:36;25.90;91.90
28837;DHT22;50669;50.982;11.022;2023-06-22T07:15:06;25.90;91.90
28837;DHT22;50669;50.982;11.022;2023-06-22T07:17:33;25.90;91.90
28837;DHT22;50669;50.982;11.022;2023-06-22T07:20:00;25.90;91.80
28837;DHT22;50669;50.982;11.022;2023-06-22T07:22:26;26.00;91.80
28837;DHT22;50669;50.982;11.022;2023-06-22T07:24:52;26.00;91.80
28837;DHT22;50669;50.982;11.022;2023-06-22T07:27:17;26.00;91.70
28837;DHT22;50669;50.982;11.022;2023-06-22T07:29:46;26.00;91.70
28837;DHT22;50669;50.982;11.022;2023-06-22T07:32:12;26.00;91.70
28837;DHT22;50669;50.982;11.022;2023-06-22T07:34:40;26.00;91.70
28837;DHT22;50669;50.982;11.022;2023-06-22T07:37:09;26.00;91.60
28837;DHT22;50669;50.982;11.022;2023-06-22T07:39:39;26.00;91.60
28837;DHT22;50669;50.982;11.022;2023-06-22T07:42:08;26.00;91.60
28837;DHT22;50669;50.982;11.022;2023-06-22T07:44:36;26.00;91.50
28837;DHT22;50669;50.982;11.022;2023-06-22T07:47:04;26.10;91.50
28837;DHT22;50669;50.982;11.022;2023-06-22T07:49:29;26.10;91.50
28837;DHT22;50669;50.982;11.022;2023-06-22T07:51:55;26.10;91.40
28837;DHT22;50669;50.982;11.022;2023-06-22T07:54:21;26.10;91.40
28837;DHT22;50669;50.982;11.022;2023-06-22T07:56:46;26.10;91.40
28837;DHT22;50669;50.982;11.022;2023-06-22T07:59:12;26.10;91.40
28837;DHT22;50669;50.982;11.022;2023-06-22T08:01:40;26.10;91.30
28837;DHT22;50669;50.982;11.022;2023-06-22T08:04:06;26.10;91.30
28837;DHT22;50669;50.982;11.022;2023-06-22T08:06:34;26.20;91.30
28837;DHT22;50669;50.982;11.022;2023-06-22T08:09:02;26.20;91.30
28837;DHT22;50669;50.982;11.022;2023-06-22T08:11:29;26.20;91.20
28837;DHT22;50669;50.982;11.022;2023-06-22T08:13:55;26.20;91.30
28837;DHT22;50669;50.982;11.022;2023-06-22T08:16:23;26.20;91.20
28837;DHT22;50669;50.982;11.022;2023-06-22T08:18:48;26.20;91.20
28837;DHT22;50669;50.982;11.022;2023-06-22T08:21:18;26.20;91.20
28837;DHT22;50669;50.982;11.022;2023-06-22T08:23:47;26.20;91.20
28837;DHT22;50669;50.982;11.022;2023-06-22T08:26:13;26.20;91.10
28837;DHT22;50669;50.982;11.022;2023-06-22T08:28:39;26.20;91.10
28837;DHT22;50669;50.982;11.022;2023-06-22T08:31:04;26.20;91.10
28837;DHT22;50669;50.982;11.022;2023-06-22T08:33:32;26.20;91.10
28837;DHT22;50669;50.982;11.022;2023-06-22T08:36:01;26.30;91.10
28837;DHT22;50669;50.982;11.022;2023-06-22T08:38:31;26.30;91.10
28837;DHT22;50669;50.982;11.022;2023-06-22T08:40:57;26.30;91.00
28837;DHT22;50669;50.982;11.022;2023-06-22T08:43:25;26.30;91.00
28837;DHT22;50669;50.982;11.022;2023-06-22T08:45:55;26.30;91.00
28837;DHT22;50669;50.982;11.022;2023-06-22T08:48:21;26.30;91.00
28837;DHT22;50669;50.982;11.022;2023-06-22T08:50:47;26.30;91.00
28837;DHT22;50669;50.982;11.022;2023-06-22T08:53:15;26.30;91.00
28837;DHT22;50669;50.982;11.022;2023-06-22T08:55:41;26.30;91.30
28837;DHT22;50669;50.982;11.022;2023-06-22T08:58:11;26.30;90.90
28837;DHT22;50669;50.982;11.022;2023-06-22T09:00:36;26.30;90.90
28837;DHT22;50669;50.982;11.022;2023-06-22T09:03:02;26.40;90.90
28837;DHT22;50669;50.982;11.022;2023-06-22T09:05:30;26.40;90.90
28837;DHT22;50669;50.982;11.022;2023-06-22T09:07:56;26.40;90.90
28837;DHT22;50669;50.982;11.022;2023-06-22T09:10:24;26.40;90.90
28837;DHT22;50669;50.982;11.022;2023-06-22T09:12:50;26.40;90.90
28837;DHT22;50669;50.982;11.022;2023-06-22T09:15:15;26.40;90.80
28837;DHT22;50669;50.982;11.022;2023-06-22T09:17:41;26.40;90.80
28837;DHT22;50669;50.982;11.022;2023-06-22T09:20:07;26.40;90.80
28837;DHT22;50669;50.982;11.022;2023-06-22T09:22:36;26.40;90.80
28837;DHT22;50669;50.982;11.022;2023-06-22T09:25:02;26.40;90.70
28837;DHT22;50669;50.982;11.022;2023-06-22T09:27:28;26.50;90.80
28837;DHT22;50669;50.982;11.022;2023-06-22T09:29:54;26.40;90.70
28837;DHT22;50669;50.982;11.022;2023-06-22T09:32:26;26.50;90.70
28837;DHT22;50669;50.982;11.022;2023-06-22T09:34:52;26.50;90.70
28837;DHT22;50669;50.982;11.022;2023-06-22T09:37:20;26.50;90.70
28837;DHT22;50669;50.982;11.022;2023-06-22T09:39:46;26.50;90.70
28837;DHT22;50669;50.982;11.022;2023-06-22T09:42:13;26.50;90.70
28837;DHT22;50669;50.982;11.022;2023-06-22T09:44:39;26.50;90.70
28837;DHT22;50669;50.982;11.022;2023-06-22T09:47:05;26.50;90.70
28837;DHT22;50669;50.982;11.022;2023-06-22T09:49:31;26.50;90.60
28837;DHT22;50669;50.982;11.022;2023-06-22T09:52:01;26.50;90.60
28837;DHT22;50669;50.982;11.022;2023-06-22T09:54:27;26.50;90.60
28837;DHT22;50669;50.982;11.022;2023-06-22T09:56:55;26.50;90.50
28837;DHT22;50669;50.982;11.022;2023-06-22T09:59:21;26.50;90.50
28837;DHT22;50669;50.982;11.022;2023-06-22T10:01:46;26.50;90.50
28837;DHT22;50669;50.982;11.022;2023-06-22T10:04:12;26.50;90.50
28837;DHT22;50669;50.982;11.022;2023-06-22T10:06:38;26.50;90.50
28837;DHT22;50669;50.982;11.022;2023-06-22T10:09:06;26.60;90.50
28837;DHT22;50669;50.982;11.022;2023-06-22T10:11:35;26.60;90.50
28837;DHT22;50669;50.982;11.022;2023-06-22T10:14:02;26.60;90.50
28837;DHT22;50669;50.982;11.022;2023-06-22T10:16:33;26.60;90.50
28837;DHT22;50669;50.982;11.022;2023-06-22T10:19:03;26.60;90.40
28837;DHT22;50669;50.982;11.022;2023-06-22T10:21:31;26.60;90.40
28837;DHT22;50669;50.982;11.022;2023-06-22T10:23:57;26.60;90.40
28837;DHT22;50669;50.982;11.022;2023-06-22T10:26:22;26.60;90.40
28837;DHT22;50669;50.982;11.022;2023-06-22T10:28:53;26.60;90.40
28837;DHT22;50669;50.982;11.022;2023-06-22T10:31:21;26.60;90.30
28837;DHT22;50669;50.982;11.022;2023-06-22T10:33:48;26.60;90.30
28837;DHT22;50669;50.982;11.022;2023-06-22T10:36:15;26.60;90.30
28837;DHT22;50669;50.982;11.022;2023-06-22T10:38:43;26.60;90.30
28837;DHT22;50669;50.982;11.022;2023-06-22T10:41:08;26.60;90.30
28837;DHT22;50669;50.982;11.022;2023-06-22T10:43:34;26.60;90.20
28837;DHT22;50669;50.982;11.022;2023-06-22T10:46:02;26.60;90.20
28837;DHT22;50669;50.982;11.022;2023-06-22T10:48:28;26.70;90.20
28837;DHT22;50669;50.982;11.022;2023-06-22T10:50:53;26.60;90.20
28837;DHT22;50669;50.982;11.022;2023-06-22T10:53:20;26.70;90.20
28837;DHT22;50669;50.982;11.022;2023-06-22T10:55:45;26.60;90.10
28837;DHT22;50669;50.982;11.022;2023-06-22T10:58:11;26.70;90.20
28837;DHT22;50669;50.982;11.022;2023-06-22T11:00:37;26.70;90.10
28837;DHT22;50669;50.982;11.022;2023-06-22T11:03:05;26.70;90.10
28837;DHT22;50669;50.982;11.022;2023-06-22T11:05:32;26.70;90.10
28837;DHT22;50669;50.982;11.022;2023-06-22T11:07:57;26.70;90.00
28837;DHT22;50669;50.982;11.022;2023-06-22T11:10:25;26.70;90.10
28837;DHT22;50669;50.982;11.022;2023-06-22T11:12:54;26.70;90.00
28837;DHT22;50669;50.982;11.022;2023-06-22T11:15:24;26.70;90.00
28837;DHT22;50669;50.982;11.022;2023-06-22T11:17:49;26.70;90.00
28837;DHT22;50669;50.982;11.022;2023-06-22T11:20:15;26.70;90.00
28837;DHT22;50669;50.982;11.022;2023-06-22T11:22:41;26.70;89.90
28837;DHT22;50669;50.982;11.022;2023-06-22T11:25:09;26.70;89.90
28837;DHT22;50669;50.982;11.022;2023-06-22T11:27:39;26.80;90.00
28837;DHT22;50669;50.982;11.022;2023-06-22T11:30:05;26.70;89.90
28837;DHT22;50669;50.982;11.022;2023-06-22T11:32:31;26.70;89.80
28837;DHT22;50669;50.982;11.022;2023-06-22T11:34:57;26.70;89.70
28837;DHT22;50669;50.982;11.022;2023-06-22T11:37:22;26.80;89.70
28837;DHT22;50669;50.982;11.022;2023-06-22T11:39:50;26.80;89.80
28837;DHT22;50669;50.982;11.022;2023-06-22T11:42:16;26.80;89.70
28837;DHT22;50669;50.982;11.022;2023-06-22T11:44:42;26.80;89.60
28837;DHT22;50669;50.982;11.022;2023-06-22T11:47:10;26.80;89.60
28837;DHT22;50669;50.982;11.022;2023-06-22T11:49:35;26.80;89.60
28837;DHT22;50669;50.982;11.022;2023-06-22T11:52:01;26.80;89.50
28837;DHT22;50669;50.982;11.022;2023-06-22T11:54:29;26.80;89.50
28837;DHT22;50669;50.982;11.022;2023-06-22T11:56:55;26.80;89.40
28837;DHT22;50669;50.982;11.022;2023-06-22T11:59:20;26.80;89.40
28837;DHT22;50669;50.982;11.022;2023-06-22T12:01:47;26.80;89.40
28837;DHT22;50669;50.982;11.022;2023-06-22T12:04:14;26.80;89.30
28837;DHT22;50669;50.982;11.022;2023-06-22T12:06:40;26.80;89.30
28837;DHT22;50669;50.982;11.022;2023-06-22T12:09:07;26.80;89.20
28837;DHT22;50669;50.982;11.022;2023-06-22T12:11:33;26.80;89.20
28837;DHT22;50669;50.982;11.022;2023-06-22T12:14:01;26.80;89.20
28837;DHT22;50669;50.982;11.022;2023-06-22T12:16:28;26.90;89.30
28837;DHT22;50669;50.982;11.022;2023-06-22T12:18:54;26.90;89.20
28837;DHT22;50669;50.982;11.022;2023-06-22T12:21:20;26.80;89.10
28837;DHT22;50669;50.982;11.022;2023-06-22T12:23:48;26.80;89.00
28837;DHT22;50669;50.982;11.022;2023-06-22T12:26:14;26.90;89.10
28837;DHT22;50669;50.982;11.022;2023-06-22T12:28:40;26.90;89.00
28837;DHT22;50669;50.982;11.022;2023-06-22T12:31:05;26.90;89.00
28837;DHT22;50669;50.982;11.022;2023-06-22T12:33:33;26.90;89.00
28837;DHT22;50669;50.982;11.022;2023-06-22T12:35:59;26.90;88.90
28837;DHT22;50669;50.982;11.022;2023-06-22T12:38:27;26.90;88.90
28837;DHT22;50669;50.982;11.022;2023-06-22T12:40:57;27.00;88.90
28837;DHT22;50669;50.982;11.022;2023-06-22T12:43:27;26.90;88.70
28837;DHT22;50669;50.982;11.022;2023-06-22T12:45:56;27.00;88.60
28837;DHT22;50669;50.982;11.022;2023-06-22T12:48:22;27.00;88.60
28837;DHT22;50669;50.982;11.022;2023-06-22T12:50:48;27.00;88.50
28837;DHT22;50669;50.982;11.022;2023-06-22T12:53:13;27.00;88.30
28837;DHT22;50669;50.982;11.022;2023-06-22T12:55:39;27.10;89.10
28837;DHT22;50669;50.982;11.022;2023-06-22T12:58:05;27.10;88.20
28837;DHT22;50669;50.982;11.022;2023-06-22T13:00:30;27.10;88.10
28837;DHT22;50669;50.982;11.022;2023-06-22T13:02:56;27.10;88.10
28837;DHT22;50669;50.982;11.022;2023-06-22T13:05:22;27.10;88.10
28837;DHT22;50669;50.982;11.022;2023-06-22T13:07:52;27.10;88.10
28837;DHT22;50669;50.982;11.022;2023-06-22T13:10:20;27.10;88.20
28837;DHT22;50669;50.982;11.022;2023-06-22T13:12:48;27.10;88.20
28837;DHT22;50669;50.982;11.022;2023-06-22T13:15:14;27.10;88.20
28837;DHT22;50669;50.982;11.022;2023-06-22T13:17:39;27.10;88.20
28837;DHT22;50669;50.982;11.022;2023-06-22T13:20:06;27.10;88.20
28837;DHT22;50669;50.982;11.022;2023-06-22T13:22:33;27.10;88.20
28837;DHT22;50669;50.982;11.022;2023-06-22T13:25:06;27.00;88.00
28837;DHT22;50669;50.982;11.022;2023-06-22T13:27:32;27.00;88.10
28837;DHT22;50669;50.982;11.022;2023-06-22T13:30:02;27.00;88.00
28837;DHT22;50669;50.982;11.022;2023-06-22T13:32:28;27.10;88.10
28837;DHT22;50669;50.982;11.022;2023-06-22T13:34:54;27.10;88.10
28837;DHT22;50669;50.982;11.022;2023-06-22T13:37:19;27.00;88.00
28837;DHT22;50669;50.982;11.022;2023-06-22T13:39:45;27.10;88.10
28837;DHT22;50669;50.982;11.022;2023-06-22T13:42:11;27.10;88.00
28837;DHT22;50669;50.982;11.022;2023-06-22T13:44:38;27.10;87.90
28837;DHT22;50669;50.982;11.022;2023-06-22T13:47:07;27.10;87.90
28837;DHT22;50669;50.982;11.022;2023-06-22T13:49:32;27.10;87.90
28837;DHT22;50669;50.982;11.022;2023-06-22T13:51:59;27.10;87.90
28837;DHT22;50669;50.982;11.022;2023-06-22T13:54:25;27.10;87.80
28837;DHT22;50669;50.982;11.022;2023-06-22T13:56:50;27.10;87.90
28837;DHT22;50669;50.982;11.022;2023-06-22T13:59:16;27.10;87.70
28837;DHT22;50669;50.982;11.022;2023-06-22T14:01:42;27.20;87.70
28837;DHT22;50669;50.982;11.022;2023-06-22T14:04:08;27.20;87.60
28837;DHT22;50669;50.982;11.022;2023-06-22T14:06:34;27.20;87.60
28837;DHT22;50669;50.982;11.022;2023-06-22T14:09:00;27.30;87.50
28837;DHT22;50669;50.982;11.022;2023-06-22T14:11:28;27.40;87.50
28837;DHT22;50669;50.982;11.022;2023-06-22T14:13:56;27.40;87.30
28837;DHT22;50669;50.982;11.022;2023-06-22T14:16:21;27.40;87.10
28837;DHT22;50669;50.982;11.022;2023-06-22T14:18:47;27.50;87.00
28837;DHT22;50669;50.982;11.022;2023-06-22T14:21:13;27.50;86.90
28837;DHT22;50669;50.982;11.022;2023-06-22T14:23:38;27.60;86.80
28837;DHT22;50669;50.982;11.022;2023-06-22T14:26:04;27.60;86.60
28837;DHT22;50669;50.982;11.022;2023-06-22T14:28:32;27.60;86.50
28837;DHT22;50669;50.982;11.022;2023-06-22T14:31:00;27.70;86.50
28837;DHT22;50669;50.982;11.022;2023-06-22T14:33:26;27.70;86.40
28837;DHT22;50669;50.982;11.022;2023-06-22T14:35:56;27.80;86.50
28837;DHT22;50669;50.982;11.022;2023-06-22T14:38:22;27.80;86.40
28837;DHT22;50669;50.982;11.022;2023-06-22T14:40:47;27.80;86.20
28837;DHT22;50669;50.982;11.022;2023-06-22T14:43:13;27.80;86.10
28837;DHT22;50669;50.982;11.022;2023-06-22T14:45:41;27.80;86.10
28837;DHT22;50669;50.982;11.022;2023-06-22T14:48:07;27.80;86.20
28837;DHT22;50669;50.982;11.022;2023-06-22T14:50:32;27.70;86.20
28837;DHT22;50669;50.982;11.022;2023-06-22T14:52:58;27.70;86.30
28837;DHT22;50669;50.982;11.022;2023-06-22T14:55:26;27.70;86.40
28837;DHT22;50669;50.982;11.022;2023-06-22T14:57:52;27.60;86.30
28837;DHT22;50669;50.982;11.022;2023-06-22T15:00:20;27.60;86.40
28837;DHT22;50669;50.982;11.022;2023-06-22T15:02:46;27.60;86.40
28837;DHT22;50669;50.982;11.022;2023-06-22T15:05:14;27.60;86.50
28837;DHT22;50669;50.982;11.022;2023-06-22T15:07:44;27.60;86.60
28837;DHT22;50669;50.982;11.022;2023-06-22T15:10:10;27.50;86.60
28837;DHT22;50669;50.982;11.022;2023-06-22T15:12:36;27.50;86.60
28837;DHT22;50669;50.982;11.022;2023-06-22T15:15:01;27.50;86.60
28837;DHT22;50669;50.982;11.022;2023-06-22T15:17:27;27.50;86.60
28837;DHT22;50669;50.982;11.022;2023-06-22T15:19:55;27.50;86.70